createdAt,value
2022-08-12T00:02:05.004Z,100782.66
2022-08-12T00:07:26.080Z,100787.91
2022-08-12T00:12:45.973Z,100785.09
2022-08-12T00:18:07.031Z,100779.38
2022-08-12T00:23:27.279Z,100778.94
2022-08-12T00:28:47.821Z,100772.97
2022-08-12T00:34:07.775Z,100772.66
2022-08-12T00:39:28.118Z,100768.03
2022-08-12T00:44:30.157Z,100769.78
2022-08-12T00:49:32.344Z,100764.84
2022-08-12T00:55:00.702Z,100768.66
2022-08-12T01:00:10.714Z,100770.75
2022-08-12T01:05:36.629Z,100767.56
2022-08-12T01:11:01.813Z,100755.09
2022-08-12T01:16:06.769Z,100757.69
2022-08-12T01:21:29.248Z,100768.00
2022-08-12T01:26:33.519Z,100754.44
2022-08-12T01:31:37.532Z,100755.34
2022-08-12T01:36:46.487Z,100760.63
2022-08-12T01:41:54.157Z,100754.78
2022-08-12T01:47:14.547Z,100758.22
2022-08-12T01:52:43.504Z,100759.06
2022-08-12T01:58:03.347Z,100753.72
2022-08-12T02:03:53.169Z,100765.81
2022-08-12T02:09:18.701Z,100758.53
2022-08-12T02:14:43.547Z,100757.31
2022-08-12T02:20:04.899Z,100767.19
2022-08-12T02:25:16.962Z,100768.25
2022-08-12T02:30:21.740Z,100767.69
2022-08-12T02:35:25.588Z,100761.72
2022-08-12T02:40:28.888Z,100767.97
2022-08-12T02:45:42.538Z,100758.44
2022-08-12T02:50:48.933Z,100759.81
2022-08-12T02:55:50.842Z,100750.56
2022-08-12T03:00:52.886Z,100750.97
2022-08-12T03:06:07.226Z,100748.75
2022-08-12T03:11:31.957Z,100741.94
2022-08-12T03:16:37.151Z,100736.66
2022-08-12T03:21:56.495Z,100732.66
2022-08-12T03:27:08.544Z,100739.53
2022-08-12T03:32:10.420Z,100732.03
2022-08-12T03:37:35.366Z,100742.25
2022-08-12T03:43:06.456Z,100735.75
2022-08-12T03:48:33.723Z,100735.09
2022-08-12T03:53:54.162Z,100747.59
2022-08-12T03:59:16.966Z,100753.53
2022-08-12T04:04:18.748Z,100754.16
2022-08-12T04:09:22.240Z,100745.94
2022-08-12T04:14:25.768Z,100768.44
2022-08-12T04:19:28.223Z,100765.50
2022-08-12T04:24:35.224Z,100778.44
2022-08-12T04:30:21.161Z,100789.78
2022-08-12T04:35:01.334Z,100788.66
2022-08-12T04:40:04.130Z,100786.00
2022-08-12T04:45:07.673Z,100785.56
2022-08-12T04:50:34.579Z,100778.59
2022-08-12T04:55:31.819Z,100785.31
2022-08-12T05:00:36.526Z,100784.53
2022-08-12T05:05:40.718Z,100768.72
2022-08-12T05:10:47.056Z,100760.56
2022-08-12T05:16:05.179Z,100762.56
2022-08-12T05:21:10.799Z,100750.53
2022-08-12T05:26:12.367Z,100744.88
2022-08-12T05:31:13.980Z,100742.16
2022-08-12T05:36:36.588Z,100747.91
2022-08-12T05:41:38.210Z,100755.69
2022-08-12T05:46:39.893Z,100756.75
2022-08-12T05:51:43.349Z,100740.31
2022-08-12T05:56:45.664Z,100746.16
2022-08-12T06:02:12.477Z,100746.78
2022-08-12T06:08:00.330Z,100752.63
2022-08-12T06:12:34.124Z,100765.28
2022-08-12T06:17:37.725Z,100756.22
2022-08-12T06:22:47.924Z,100754.66
2022-08-12T06:28:06.123Z,100750.78
2022-08-12T06:33:22.270Z,100757.41
2022-08-12T06:38:26.841Z,100754.44
2022-08-12T06:43:28.493Z,100746.31
2022-08-12T06:48:52.144Z,100759.59
2022-08-12T06:53:53.885Z,100751.72
2022-08-12T06:58:57.852Z,100754.53
2022-08-12T07:04:14.355Z,100746.03
2022-08-12T07:10:01.613Z,100757.22
2022-08-12T07:14:48.394Z,100757.22
2022-08-12T07:19:51.990Z,100752.59
2022-08-12T07:25:13.714Z,100746.06
2022-08-12T07:30:15.297Z,100745.22
2022-08-12T07:35:19.599Z,100738.56
2022-08-12T07:40:21.271Z,100735.44
2022-08-12T07:45:24.615Z,100739.00
2022-08-12T07:50:26.718Z,100736.03
2022-08-12T07:55:29.192Z,100738.16
2022-08-12T08:00:34.332Z,100734.78
2022-08-12T08:05:54.794Z,100735.59
2022-08-12T08:11:19.006Z,100731.84
2022-08-12T08:16:20.631Z,100735.19
2022-08-12T08:21:22.224Z,100732.75
2022-08-12T08:26:24.856Z,100723.84
2022-08-12T08:31:26.449Z,100723.25
2022-08-12T08:36:28.390Z,100724.06
2022-08-12T08:42:18.915Z,100721.03
2022-08-12T08:47:12.701Z,100718.41
2022-08-12T08:52:40.545Z,100729.59
2022-08-12T08:57:43.450Z,100705.34
2022-08-12T09:02:49.552Z,100716.19
2022-08-12T09:08:14.137Z,100709.50
2022-08-12T09:14:11.429Z,100724.19
2022-08-12T09:18:54.308Z,100713.91
2022-08-12T09:24:07.455Z,100712.50
2022-08-12T09:29:12.428Z,100727.78
2022-08-12T09:34:25.212Z,100723.41
2022-08-12T09:40:06.164Z,100716.31
2022-08-12T09:45:18.877Z,100706.84
2022-08-12T09:50:22.443Z,100703.91
2022-08-12T09:56:05.696Z,100700.22
2022-08-12T10:00:52.876Z,100687.47
2022-08-12T10:06:27.126Z,100676.28
2022-08-12T10:12:09.889Z,100670.81
2022-08-12T10:16:57.806Z,100679.38
2022-08-12T10:21:59.981Z,100668.31
2022-08-12T10:27:20.137Z,100673.84
2022-08-12T10:32:44.979Z,100663.84
2022-08-12T10:38:35.613Z,100661.91
2022-08-12T10:43:27.169Z,100652.97
2022-08-12T10:48:33.843Z,100653.81
2022-08-12T10:53:45.927Z,100641.41
2022-08-12T10:58:48.936Z,100646.47
2022-08-12T11:04:28.594Z,100638.19
2022-08-12T11:09:13.030Z,100637.03
2022-08-12T11:14:50.316Z,100650.41
2022-08-12T11:19:50.081Z,100635.88
2022-08-12T11:24:51.979Z,100629.53
2022-08-12T11:30:01.904Z,100627.41
2022-08-12T11:35:11.679Z,100616.31
2022-08-12T11:40:13.562Z,100609.53
2022-08-12T11:45:16.623Z,100604.00
2022-08-12T11:50:20.565Z,100606.97
2022-08-12T11:55:23.243Z,100606.97
2022-08-12T12:05:46.764Z,100587.75
2022-08-12T12:10:50.417Z,100580.75
2022-08-12T12:15:53.222Z,100582.56
2022-08-12T12:20:58.310Z,100583.25
2022-08-12T12:26:07.261Z,100584.41
2022-08-12T12:31:14.859Z,100579.63
2022-08-12T12:36:31.852Z,100576.88
2022-08-12T12:42:41.720Z,100578.75
2022-08-12T12:46:57.211Z,100574.56
2022-08-12T12:52:18.972Z,100560.16
2022-08-12T12:57:21.617Z,100557.81
2022-08-12T13:02:40.443Z,100561.09
2022-08-12T13:07:54.115Z,100569.38
2022-08-12T13:12:56.962Z,100561.06
2022-08-12T13:18:05.188Z,100556.66
2022-08-12T13:23:36.521Z,100564.56
2022-08-12T13:28:31.097Z,100548.59
2022-08-12T13:34:28.636Z,100550.28
2022-08-12T13:38:55.525Z,100534.47
2022-08-12T13:43:57.212Z,100533.13
2022-08-12T13:49:02.622Z,100533.03
2022-08-12T13:54:07.101Z,100522.00
2022-08-12T13:59:11.728Z,100521.00
2022-08-12T14:04:13.423Z,100500.47
2022-08-12T14:09:17.773Z,100508.69
2022-08-12T14:14:20.137Z,100509.16
2022-08-12T14:19:24.414Z,100510.56
2022-08-12T14:24:40.711Z,100497.84
2022-08-12T14:30:04.847Z,100497.53
2022-08-12T14:35:09.157Z,100499.78
2022-08-12T14:40:18.142Z,100496.25
2022-08-12T14:45:22.974Z,100486.84
2022-08-12T14:50:40.890Z,100485.97
2022-08-12T15:01:29.603Z,100490.78
2022-08-12T15:06:39.770Z,100482.44
2022-08-12T15:12:03.087Z,100468.63
2022-08-12T15:17:08.527Z,100466.16
2022-08-12T15:22:37.641Z,100481.94
2022-08-12T15:28:20.679Z,100463.69
2022-08-12T15:32:56.158Z,100472.00
2022-08-12T15:38:10.140Z,100464.94
2022-08-12T15:43:51.247Z,100463.22
2022-08-12T15:48:37.585Z,100458.09
2022-08-12T15:53:57.678Z,100456.84
2022-08-12T15:58:59.621Z,100467.97
2022-08-12T16:04:01.269Z,100455.81
2022-08-12T16:09:03.054Z,100454.22
2022-08-12T16:14:10.514Z,100443.81
2022-08-12T16:20:01.702Z,100437.44
2022-08-12T16:24:39.022Z,100449.41
2022-08-12T16:29:54.383Z,100444.75
2022-08-12T16:34:57.727Z,100438.13
2022-08-12T16:40:04.806Z,100441.75
2022-08-12T16:45:10.414Z,100434.97
2022-08-12T16:50:15.456Z,100441.78
2022-08-12T16:55:18.638Z,100430.53
2022-08-12T17:00:20.568Z,100429.50
2022-08-12T17:05:25.161Z,100416.53
2022-08-12T17:10:35.958Z,100425.25
2022-08-12T17:15:56.887Z,100418.88
2022-08-12T17:21:07.909Z,100415.47
2022-08-12T17:26:11.056Z,100412.50
2022-08-12T17:31:13.560Z,100411.66
2022-08-12T17:36:15.156Z,100417.16
2022-08-12T17:41:23.065Z,100424.41
2022-08-12T17:46:39.465Z,100427.56
2022-08-12T17:51:50.219Z,100420.53
2022-08-12T17:56:53.541Z,100425.19
2022-08-12T18:02:01.755Z,100420.06
2022-08-12T18:07:08.248Z,100420.47
2022-08-12T18:12:35.378Z,100423.22
2022-08-12T18:17:47.040Z,100432.09
2022-08-12T18:22:55.714Z,100437.81
2022-08-12T18:28:15.921Z,100431.19
2022-08-12T18:33:19.830Z,100438.56
2022-08-12T18:38:24.826Z,100443.25
2022-08-12T18:43:27.957Z,100446.63
2022-08-12T18:48:32.014Z,100458.06
2022-08-12T18:54:07.019Z,100457.16
2022-08-12T18:59:01.215Z,100456.63
2022-08-12T19:04:06.773Z,100453.22
2022-08-12T19:09:11.488Z,100446.78
2022-08-12T19:14:27.921Z,100452.19
2022-08-12T19:19:41.493Z,100453.41
2022-08-12T19:25:02.503Z,100458.88
2022-08-12T19:30:09.082Z,100468.16
2022-08-12T19:40:37.273Z,100470.09
2022-08-12T19:45:43.369Z,100471.41
2022-08-12T19:50:57.483Z,100466.44
2022-08-12T19:55:59.136Z,100464.53
2022-08-12T20:01:00.727Z,100458.38
2022-08-12T20:06:07.776Z,100457.91
2022-08-12T20:12:13.148Z,100452.13
2022-08-12T20:21:58.338Z,100460.66
2022-08-12T20:27:00.296Z,100456.31
2022-08-12T20:32:06.106Z,100457.75
2022-08-12T20:37:13.443Z,100465.06
2022-08-12T20:42:16.154Z,100472.69
2022-08-12T20:47:20.094Z,100471.34
2022-08-12T20:52:22.612Z,100462.84
2022-08-12T20:57:37.411Z,100463.94
2022-08-12T21:02:43.645Z,100469.84
2022-08-12T21:07:51.493Z,100460.91
2022-08-12T21:12:54.106Z,100470.09
2022-08-12T21:18:11.321Z,100473.22
2022-08-12T21:23:30.790Z,100474.06
2022-08-12T21:28:38.545Z,100477.03
2022-08-12T21:33:58.769Z,100480.47
2022-08-12T21:39:19.120Z,100472.69
2022-08-12T21:45:44.240Z,100456.47
2022-08-12T21:49:55.174Z,100463.38
2022-08-12T21:54:59.651Z,100465.94
2022-08-12T22:00:01.232Z,100465.09
2022-08-12T22:05:23.192Z,100457.63
2022-08-12T22:10:28.313Z,100450.75
2022-08-12T22:15:30.917Z,100445.47
2022-08-12T22:20:32.743Z,100446.03
2022-08-12T22:25:34.367Z,100449.28
2022-08-12T22:31:00.362Z,100458.00
2022-08-12T22:36:03.120Z,100450.97
2022-08-12T22:41:28.245Z,100452.88
2022-08-12T22:46:52.501Z,100441.00
2022-08-12T22:52:00.687Z,100446.97
2022-08-12T22:57:12.360Z,100444.81
2022-08-12T23:02:14.317Z,100442.06
2022-08-12T23:07:16.261Z,100436.59
2022-08-12T23:12:46.505Z,100437.34
2022-08-12T23:17:48.694Z,100427.09
2022-08-12T23:22:56.100Z,100429.06
2022-08-12T23:28:32.470Z,100421.88
2022-08-12T23:34:02.376Z,100412.00
2022-08-12T23:39:01.645Z,100408.84
2022-08-12T23:44:06.875Z,100408.53
2022-08-12T23:49:13.792Z,100408.28
2022-08-12T23:54:33.169Z,100403.44
2022-08-12T23:59:43.651Z,100396.91
